createdAt,value
2022-09-15T00:00:26.627Z,13.39
2022-09-15T00:02:53.096Z,13.33
2022-09-15T00:05:19.689Z,13.61
2022-09-15T00:07:46.664Z,13.54
2022-09-15T00:10:13.159Z,13.56
2022-09-15T00:12:39.588Z,13.59
2022-09-15T00:15:06.713Z,13.60
2022-09-15T00:17:33.242Z,13.58
2022-09-15T00:19:59.570Z,13.48
2022-09-15T00:22:26.224Z,13.46
2022-09-15T00:24:52.552Z,13.45
2022-09-15T00:27:19.076Z,13.55
2022-09-15T00:29:45.423Z,13.58
2022-09-15T00:32:11.856Z,13.62
2022-09-15T00:34:38.179Z,13.60
2022-09-15T00:37:04.632Z,13.60
2022-09-15T00:39:30.969Z,13.73
2022-09-15T00:41:57.430Z,13.80
2022-09-15T00:44:23.696Z,13.77
2022-09-15T00:47:15.321Z,13.75
2022-09-15T00:49:42.322Z,13.76
2022-09-15T00:52:13.568Z,13.49
2022-09-15T00:54:54.681Z,13.57
2022-09-15T00:57:39.828Z,13.59
2022-09-15T01:00:11.514Z,13.68
2022-09-15T01:02:40.078Z,13.84
2022-09-15T01:05:10.463Z,13.76
2022-09-15T01:07:53.081Z,13.77
2022-09-15T01:10:25.736Z,13.48
2022-09-15T01:12:55.523Z,13.55
2022-09-15T01:15:25.693Z,13.57
2022-09-15T01:18:10.624Z,13.49
2022-09-15T01:20:55.043Z,13.45
2022-09-15T01:23:40.429Z,13.47
2022-09-15T01:26:09.460Z,13.46
2022-09-15T01:28:57.215Z,13.37
2022-09-15T01:31:29.623Z,13.29
2022-09-15T01:34:08.129Z,13.37
2022-09-15T01:36:47.303Z,13.25
2022-09-15T01:39:21.384Z,13.40
2022-09-15T01:41:59.022Z,13.42
2022-09-15T01:44:32.120Z,13.35
2022-09-15T01:47:04.421Z,13.44
2022-09-15T01:49:48.394Z,13.44
2022-09-15T01:52:18.056Z,13.45
2022-09-15T01:54:49.107Z,13.44
2022-09-15T01:57:21.347Z,13.48
2022-09-15T01:59:53.950Z,13.34
2022-09-15T02:02:30.841Z,13.39
2022-09-15T02:05:25.716Z,13.54
2022-09-15T02:08:04.982Z,13.37
2022-09-15T02:10:50.855Z,13.39
2022-09-15T02:13:25.436Z,13.44
2022-09-15T02:15:57.267Z,13.37
2022-09-15T02:18:34.822Z,13.61
2022-09-15T02:21:30.088Z,13.44
2022-09-15T02:24:04.330Z,13.66
2022-09-15T02:26:34.036Z,13.54
2022-09-15T02:29:05.112Z,13.42
2022-09-15T02:31:34.998Z,13.38
2022-09-15T02:34:07.745Z,13.56
2022-09-15T02:36:34.673Z,13.50
2022-09-15T02:39:07.309Z,13.59
2022-09-15T02:41:36.482Z,13.61
2022-09-15T02:44:03.749Z,13.57
2022-09-15T02:46:30.221Z,13.58
2022-09-15T02:48:57.391Z,13.58
2022-09-15T02:51:23.735Z,13.49
2022-09-15T02:53:50.265Z,13.51
2022-09-15T02:56:18.069Z,13.57
2022-09-15T02:58:44.627Z,13.62
2022-09-15T03:01:14.942Z,13.32
2022-09-15T03:03:43.153Z,13.30
2022-09-15T03:06:20.931Z,13.22
2022-09-15T03:08:53.165Z,13.44
2022-09-15T03:11:21.835Z,13.51
2022-09-15T03:13:48.842Z,13.64
2022-09-15T03:16:16.205Z,13.57
2022-09-15T03:18:43.036Z,13.55
2022-09-15T03:21:13.802Z,13.49
2022-09-15T03:23:40.879Z,13.14
2022-09-15T03:26:09.142Z,13.35
2022-09-15T03:28:36.773Z,13.42
2022-09-15T03:31:03.971Z,13.26
2022-09-15T03:33:30.709Z,13.35
2022-09-15T03:35:57.607Z,13.37
2022-09-15T03:38:24.772Z,13.43
2022-09-15T03:41:07.679Z,13.25
2022-09-15T03:43:35.402Z,13.32
2022-09-15T03:46:02.886Z,13.15
2022-09-15T03:48:32.045Z,13.22
2022-09-15T03:50:58.798Z,13.15
2022-09-15T03:53:25.283Z,13.22
2022-09-15T03:55:52.308Z,13.09
2022-09-15T03:58:19.459Z,12.93
2022-09-15T04:00:46.618Z,13.02
2022-09-15T04:03:13.759Z,13.03
2022-09-15T04:05:40.580Z,12.96
2022-09-15T04:08:06.982Z,12.95
2022-09-15T04:10:33.504Z,13.10
2022-09-15T04:12:59.836Z,13.07
2022-09-15T04:15:26.201Z,12.95
2022-09-15T04:17:52.518Z,13.01
2022-09-15T04:20:19.090Z,13.06
2022-09-15T04:22:45.437Z,12.94
2022-09-15T04:25:12.101Z,13.04
2022-09-15T04:27:38.772Z,13.04
2022-09-15T04:30:07.095Z,12.98
2022-09-15T04:32:35.617Z,12.94
2022-09-15T04:35:02.663Z,12.87
2022-09-15T04:37:29.744Z,12.85
2022-09-15T04:39:56.761Z,13.00
2022-09-15T04:42:23.908Z,12.98
2022-09-15T04:44:50.270Z,12.99
2022-09-15T04:47:17.439Z,13.08
2022-09-15T04:49:43.806Z,12.82
2022-09-15T04:52:10.195Z,12.77
2022-09-15T04:54:36.760Z,12.93
2022-09-15T04:57:03.165Z,13.00
2022-09-15T04:59:29.709Z,13.13
2022-09-15T05:01:56.208Z,13.02
2022-09-15T05:04:22.880Z,12.96
2022-09-15T05:06:49.196Z,12.92
2022-09-15T05:09:15.965Z,12.85
2022-09-15T05:11:42.366Z,12.76
2022-09-15T05:14:10.829Z,12.70
2022-09-15T05:16:37.371Z,12.67
2022-09-15T05:19:04.838Z,12.86
2022-09-15T05:21:31.987Z,12.96
2022-09-15T05:23:58.619Z,12.92
2022-09-15T05:26:28.147Z,12.87
2022-09-15T05:28:55.440Z,12.88
2022-09-15T05:31:27.625Z,12.95
2022-09-15T05:33:54.839Z,12.99
2022-09-15T05:36:25.035Z,12.91
2022-09-15T05:38:53.410Z,12.96
2022-09-15T05:41:20.750Z,12.91
2022-09-15T05:43:48.109Z,12.92
2022-09-15T05:46:15.367Z,12.91
2022-09-15T05:48:42.040Z,12.78
2022-09-15T05:51:08.571Z,12.93
2022-09-15T05:53:36.136Z,12.99
2022-09-15T05:56:05.210Z,13.09
2022-09-15T05:58:32.401Z,13.07
2022-09-15T06:01:08.307Z,12.90
2022-09-15T06:03:35.849Z,13.06
2022-09-15T06:06:03.813Z,12.77
2022-09-15T06:08:35.049Z,12.79
2022-09-15T06:11:07.961Z,12.77
2022-09-15T06:13:34.387Z,12.94
2022-09-15T06:16:09.286Z,12.95
2022-09-15T06:18:37.450Z,12.97
2022-09-15T06:21:09.466Z,13.17
2022-09-15T06:23:37.134Z,12.96
2022-09-15T06:26:18.593Z,12.98
2022-09-15T06:28:50.445Z,13.17
2022-09-15T06:31:17.096Z,13.17
2022-09-15T06:33:45.776Z,13.22
2022-09-15T06:36:13.249Z,13.22
2022-09-15T06:38:40.296Z,13.23
2022-09-15T06:41:07.290Z,13.29
2022-09-15T06:43:33.856Z,13.33
2022-09-15T06:46:10.559Z,13.32
2022-09-15T06:48:38.145Z,13.20
2022-09-15T06:51:05.873Z,13.17
2022-09-15T06:53:33.596Z,13.31
2022-09-15T06:56:11.840Z,13.15
2022-09-15T06:58:40.229Z,13.27
2022-09-15T07:01:09.779Z,13.29
2022-09-15T07:03:41.236Z,13.26
2022-09-15T07:06:08.842Z,13.40
2022-09-15T07:08:35.381Z,13.46
2022-09-15T07:11:01.694Z,13.81
2022-09-15T07:13:29.526Z,13.85
2022-09-15T07:15:58.492Z,13.94
2022-09-15T07:18:25.623Z,13.82
2022-09-15T07:20:52.615Z,13.80
2022-09-15T07:23:19.468Z,13.64
2022-09-15T07:25:45.936Z,13.25
2022-09-15T07:28:12.635Z,13.29
2022-09-15T07:30:39.728Z,13.32
2022-09-15T07:33:07.659Z,13.42
2022-09-15T07:35:33.979Z,13.31
2022-09-15T07:38:00.683Z,14.17
2022-09-15T07:40:28.584Z,14.90
2022-09-15T07:42:55.323Z,14.86
2022-09-15T07:45:21.769Z,14.84
2022-09-15T07:47:48.192Z,15.18
2022-09-15T07:50:14.745Z,15.59
2022-09-15T07:52:41.291Z,16.35
2022-09-15T07:55:09.314Z,16.79
2022-09-15T07:57:36.091Z,16.79
2022-09-15T08:00:04.001Z,17.53
2022-09-15T08:02:30.344Z,18.28
2022-09-15T08:04:57.903Z,19.28
2022-09-15T08:07:24.686Z,18.56
2022-09-15T08:09:51.015Z,17.96
2022-09-15T08:12:18.064Z,17.12
2022-09-15T08:14:44.767Z,16.60
2022-09-15T08:17:11.790Z,16.35
2022-09-15T08:19:38.469Z,16.02
2022-09-15T08:22:05.139Z,15.90
2022-09-15T08:24:31.464Z,15.64
2022-09-15T08:26:57.851Z,15.68
2022-09-15T08:29:24.179Z,15.24
2022-09-15T08:31:50.655Z,15.16
2022-09-15T08:34:17.192Z,15.23
2022-09-15T08:36:43.591Z,15.42
2022-09-15T08:39:10.034Z,15.25
2022-09-15T08:41:41.474Z,15.16
2022-09-15T08:44:23.744Z,15.26
2022-09-15T08:47:08.792Z,15.34
2022-09-15T08:49:59.895Z,15.34
2022-09-15T08:52:33.622Z,15.25
2022-09-15T08:55:05.691Z,15.17
2022-09-15T08:57:32.075Z,15.13
2022-09-15T08:59:59.570Z,15.21
2022-09-15T09:03:03.145Z,15.17
2022-09-15T09:05:45.521Z,15.23
2022-09-15T09:09:16.964Z,15.37
2022-09-15T09:11:49.192Z,15.31
2022-09-15T09:14:24.707Z,15.61
2022-09-15T09:17:02.946Z,15.62
2022-09-15T09:19:46.176Z,15.77
2022-09-15T09:22:17.788Z,15.87
2022-09-15T09:24:47.725Z,15.75
2022-09-15T09:27:23.013Z,15.34
2022-09-15T09:29:55.397Z,15.50
2022-09-15T09:32:32.132Z,15.47
2022-09-15T09:35:26.236Z,15.21
2022-09-15T09:37:53.567Z,14.44
2022-09-15T09:40:20.884Z,14.21
2022-09-15T09:42:47.634Z,14.14
2022-09-15T09:45:16.335Z,14.09
2022-09-15T09:47:43.033Z,14.25
2022-09-15T09:50:34.834Z,14.20
2022-09-15T09:53:23.284Z,14.36
2022-09-15T09:55:49.643Z,14.45
2022-09-15T09:58:24.302Z,14.50
2022-09-15T10:00:52.496Z,14.63
2022-09-15T10:03:27.102Z,14.59
2022-09-15T10:06:11.637Z,14.76
2022-09-15T10:08:52.017Z,15.02
2022-09-15T10:11:18.556Z,15.23
2022-09-15T10:13:54.780Z,15.21
2022-09-15T10:16:22.462Z,15.03
2022-09-15T10:18:54.250Z,15.26
2022-09-15T10:21:24.523Z,15.20
2022-09-15T10:23:51.134Z,15.25
2022-09-15T10:26:32.164Z,15.28
2022-09-15T10:29:13.607Z,14.84
2022-09-15T10:31:41.180Z,15.06
2022-09-15T10:34:31.612Z,15.16
2022-09-15T10:37:13.941Z,15.41
2022-09-15T10:39:51.635Z,15.63
2022-09-15T10:42:36.126Z,15.76
2022-09-15T10:45:25.713Z,15.91
2022-09-15T10:48:08.856Z,16.24
2022-09-15T10:50:54.654Z,16.33
2022-09-15T10:53:57.435Z,16.49
2022-09-15T10:56:35.068Z,16.94
2022-09-15T10:59:14.984Z,17.16
2022-09-15T11:02:03.033Z,17.41
2022-09-15T11:04:44.478Z,17.87
2022-09-15T11:07:38.355Z,18.01
2022-09-15T11:10:48.771Z,17.47
2022-09-15T11:13:18.023Z,17.20
2022-09-15T11:15:56.585Z,16.66
2022-09-15T11:18:47.545Z,16.59
2022-09-15T11:21:23.243Z,15.90
2022-09-15T11:24:08.236Z,16.02
2022-09-15T11:26:57.760Z,15.98
2022-09-15T11:29:29.543Z,16.30
2022-09-15T11:35:00.522Z,17.24
2022-09-15T11:37:38.502Z,17.00
2022-09-15T11:40:20.543Z,16.79
2022-09-15T11:42:56.899Z,17.21
2022-09-15T11:45:30.368Z,17.28
2022-09-15T11:48:03.859Z,16.98
2022-09-15T11:50:34.405Z,17.36
2022-09-15T11:53:09.876Z,17.94
2022-09-15T11:55:53.313Z,17.88
2022-09-15T11:58:34.269Z,17.60
2022-09-15T12:01:09.039Z,17.67
2022-09-15T12:03:55.076Z,17.53
2022-09-15T12:06:46.284Z,17.34
2022-09-15T12:09:20.616Z,16.92
2022-09-15T12:11:54.530Z,16.92
2022-09-15T12:14:38.273Z,16.73
2022-09-15T12:17:06.435Z,16.90
2022-09-15T12:19:40.700Z,17.02
2022-09-15T12:22:29.814Z,17.00
2022-09-15T12:25:01.589Z,16.97
2022-09-15T12:27:28.307Z,16.99
2022-09-15T12:29:57.153Z,16.92
2022-09-15T12:32:34.815Z,16.96
2022-09-15T12:35:16.371Z,17.59
2022-09-15T12:37:57.200Z,17.91
2022-09-15T12:40:34.866Z,18.57
2022-09-15T12:43:03.869Z,18.91
2022-09-15T12:45:36.189Z,18.87
2022-09-15T12:48:07.552Z,18.87
2022-09-15T12:50:37.990Z,19.03
2022-09-15T12:53:20.046Z,19.31
2022-09-15T12:56:02.307Z,19.21
2022-09-15T12:58:47.324Z,17.96
2022-09-15T13:01:23.022Z,17.81
2022-09-15T13:03:49.558Z,17.46
2022-09-15T13:06:19.812Z,17.32
2022-09-15T13:08:49.702Z,17.29
2022-09-15T13:11:42.035Z,17.18
2022-09-15T13:14:22.407Z,16.68
2022-09-15T13:17:03.027Z,16.49
2022-09-15T13:19:41.529Z,16.25
2022-09-15T13:22:11.375Z,15.57
2022-09-15T13:24:48.762Z,14.99
2022-09-15T13:27:19.109Z,14.49
2022-09-15T13:30:11.588Z,14.55
2022-09-15T13:32:46.568Z,14.47
2022-09-15T13:36:02.589Z,14.71
2022-09-15T13:38:56.648Z,14.75
2022-09-15T13:41:52.499Z,14.88
2022-09-15T13:44:56.849Z,15.25
2022-09-15T13:47:31.120Z,15.55
2022-09-15T13:50:28.857Z,15.72
2022-09-15T13:53:26.179Z,16.04
2022-09-15T13:55:56.924Z,16.22
2022-09-15T14:01:12.864Z,17.13
2022-09-15T14:03:45.793Z,17.74
2022-09-15T14:06:15.416Z,17.80
2022-09-15T14:08:44.286Z,18.12
2022-09-15T14:11:15.688Z,18.17
2022-09-15T14:13:48.961Z,17.82
2022-09-15T14:16:28.444Z,17.79
2022-09-15T14:18:57.615Z,17.51
2022-09-15T14:21:29.730Z,17.10
2022-09-15T14:23:59.452Z,17.12
2022-09-15T14:26:28.880Z,17.19
2022-09-15T14:28:58.637Z,17.02
2022-09-15T14:31:43.481Z,17.13
2022-09-15T14:34:17.152Z,17.40
2022-09-15T14:36:43.591Z,17.48
2022-09-15T14:39:21.603Z,17.38
2022-09-15T14:41:48.783Z,17.05
2022-09-15T14:47:20.368Z,15.86
2022-09-15T14:49:47.344Z,15.72
2022-09-15T14:52:25.412Z,15.56
2022-09-15T14:54:59.192Z,15.18
2022-09-15T14:57:31.355Z,15.16
2022-09-15T15:00:03.537Z,15.07
2022-09-15T15:03:02.299Z,15.12
2022-09-15T15:05:41.275Z,15.12
2022-09-15T15:08:13.162Z,14.74
2022-09-15T15:10:40.132Z,14.42
2022-09-15T15:13:12.156Z,14.45
2022-09-15T15:15:39.073Z,14.37
2022-09-15T15:18:30.890Z,14.42
2022-09-15T15:20:58.214Z,14.49
2022-09-15T15:23:25.957Z,14.62
2022-09-15T15:25:53.776Z,14.63
2022-09-15T15:28:35.890Z,14.74
2022-09-15T15:31:26.886Z,14.82
2022-09-15T15:33:56.879Z,14.86
2022-09-15T15:36:24.576Z,14.92
2022-09-15T15:38:54.183Z,14.74
2022-09-15T15:41:24.224Z,15.05
2022-09-15T15:44:14.705Z,14.90
2022-09-15T15:46:51.580Z,14.96
2022-09-15T15:49:20.949Z,14.87
2022-09-15T15:51:47.765Z,14.88
2022-09-15T15:54:14.460Z,14.59
2022-09-15T15:56:41.208Z,14.41
2022-09-15T15:59:11.530Z,14.65
2022-09-15T16:01:38.008Z,15.05
2022-09-15T16:04:04.481Z,14.88
2022-09-15T16:06:31.885Z,14.87
2022-09-15T16:08:58.516Z,15.06
2022-09-15T16:11:25.028Z,15.02
2022-09-15T16:13:51.862Z,14.53
2022-09-15T16:16:23.665Z,14.55
2022-09-15T16:18:50.588Z,14.50
2022-09-15T16:21:27.511Z,14.63
2022-09-15T16:23:54.059Z,14.39
2022-09-15T16:26:24.882Z,14.41
2022-09-15T16:28:51.582Z,14.41
2022-09-15T16:31:18.081Z,14.28
2022-09-15T16:33:44.908Z,14.41
2022-09-15T16:36:16.415Z,14.32
2022-09-15T16:38:42.987Z,14.37
2022-09-15T16:41:16.137Z,14.44
2022-09-15T16:43:44.394Z,14.54
2022-09-15T16:46:11.919Z,14.50
2022-09-15T16:48:40.004Z,14.53
2022-09-15T16:51:28.413Z,14.60
2022-09-15T16:53:56.240Z,14.54
2022-09-15T16:56:22.679Z,14.56
2022-09-15T16:58:49.106Z,14.38
2022-09-15T17:01:20.768Z,14.45
2022-09-15T17:03:48.013Z,14.51
2022-09-15T17:06:16.983Z,14.55
2022-09-15T17:08:43.484Z,14.44
2022-09-15T17:11:16.482Z,14.47
2022-09-15T17:13:43.452Z,14.37
2022-09-15T17:16:10.797Z,14.52
2022-09-15T17:18:37.185Z,14.50
2022-09-15T17:21:03.542Z,14.50
2022-09-15T17:23:38.928Z,14.53
2022-09-15T17:26:17.984Z,14.41
2022-09-15T17:28:44.353Z,14.31
2022-09-15T17:31:20.928Z,14.30
2022-09-15T17:33:48.752Z,14.23
2022-09-15T17:36:16.101Z,14.16
2022-09-15T17:38:44.801Z,14.26
2022-09-15T17:41:22.715Z,14.23
2022-09-15T17:43:49.614Z,14.05
2022-09-15T17:46:16.087Z,14.05
2022-09-15T17:48:42.590Z,14.08
2022-09-15T17:51:15.232Z,14.14
2022-09-15T17:53:41.589Z,14.04
2022-09-15T17:56:07.925Z,14.02
2022-09-15T17:58:34.371Z,13.98
2022-09-15T18:01:00.783Z,13.97
2022-09-15T18:03:30.390Z,13.96
2022-09-15T18:05:58.979Z,14.09
2022-09-15T18:08:26.268Z,14.09
2022-09-15T18:10:52.827Z,14.04
2022-09-15T18:13:21.788Z,13.96
2022-09-15T18:15:51.853Z,13.98
2022-09-15T18:18:20.864Z,14.02
2022-09-15T18:20:49.585Z,13.86
2022-09-15T18:23:19.287Z,13.63
2022-09-15T18:25:47.150Z,13.72
2022-09-15T18:28:15.055Z,13.58
2022-09-15T18:30:45.478Z,13.32
2022-09-15T18:33:22.172Z,13.48
2022-09-15T18:35:51.039Z,13.63
2022-09-15T18:38:17.885Z,13.57
2022-09-15T18:40:53.449Z,13.30
2022-09-15T18:43:21.207Z,13.33
2022-09-15T18:45:48.237Z,13.52
2022-09-15T18:48:14.732Z,13.34
2022-09-15T18:50:43.480Z,13.66
2022-09-15T18:53:09.928Z,13.42
2022-09-15T18:55:36.441Z,13.56
2022-09-15T18:58:02.808Z,13.61
2022-09-15T19:00:29.678Z,13.64
2022-09-15T19:03:01.384Z,13.35
2022-09-15T19:05:29.759Z,13.24
2022-09-15T19:07:56.363Z,12.70
2022-09-15T19:10:23.995Z,12.85
2022-09-15T19:12:50.817Z,12.58
2022-09-15T19:15:17.377Z,12.10
2022-09-15T19:17:44.183Z,12.40
2022-09-15T19:20:14.332Z,12.33
2022-09-15T19:22:41.849Z,12.11
2022-09-15T19:25:09.853Z,12.36
2022-09-15T19:27:36.948Z,12.62
2022-09-15T19:30:04.943Z,12.44
2022-09-15T19:32:32.868Z,12.51
2022-09-15T19:34:59.350Z,12.45
2022-09-15T19:37:26.143Z,12.43
2022-09-15T19:39:52.720Z,12.50
2022-09-15T19:42:19.131Z,12.57
2022-09-15T19:44:46.005Z,12.56
2022-09-15T19:47:12.391Z,12.38
2022-09-15T19:49:38.920Z,12.49
2022-09-15T19:52:06.317Z,12.51
2022-09-15T19:54:33.293Z,12.26
2022-09-15T19:56:59.726Z,12.16
2022-09-15T19:59:30.830Z,12.23
2022-09-15T20:01:58.026Z,12.18
2022-09-15T20:04:24.524Z,11.70
2022-09-15T20:06:50.881Z,11.73
2022-09-15T20:09:17.778Z,11.75
2022-09-15T20:11:44.455Z,11.90
2022-09-15T20:14:10.829Z,12.00
2022-09-15T20:16:37.219Z,11.68
2022-09-15T20:19:04.773Z,11.67
2022-09-15T20:21:49.432Z,11.45
2022-09-15T20:24:16.769Z,11.57
2022-09-15T20:26:43.188Z,11.52
2022-09-15T20:29:10.329Z,11.64
2022-09-15T20:31:36.785Z,11.66
2022-09-15T20:34:03.252Z,11.55
2022-09-15T20:36:33.293Z,11.45
2022-09-15T20:39:01.156Z,11.44
2022-09-15T20:41:28.828Z,11.48
2022-09-15T20:43:55.585Z,11.56
2022-09-15T20:46:23.823Z,11.56
2022-09-15T20:48:51.551Z,11.54
2022-09-15T20:51:23.619Z,11.24
2022-09-15T20:53:52.783Z,11.36
2022-09-15T20:56:23.107Z,11.33
2022-09-15T20:58:49.639Z,11.31
2022-09-15T21:01:19.599Z,11.43
2022-09-15T21:03:46.527Z,11.33
2022-09-15T21:06:18.150Z,11.41
2022-09-15T21:08:45.615Z,11.30
2022-09-15T21:11:11.963Z,11.43
2022-09-15T21:13:40.431Z,11.42
2022-09-15T21:16:09.358Z,11.52
2022-09-15T21:18:38.367Z,11.64
2022-09-15T21:21:06.276Z,11.50
2022-09-15T21:23:40.726Z,11.60
2022-09-15T21:26:10.131Z,11.68
2022-09-15T21:28:37.203Z,11.68
2022-09-15T21:31:06.117Z,11.64
2022-09-15T21:33:33.348Z,11.56
2022-09-15T21:36:07.132Z,11.59
2022-09-15T21:38:34.697Z,11.54
2022-09-15T21:41:01.032Z,11.27
2022-09-15T21:43:32.817Z,11.28
2022-09-15T21:45:59.283Z,11.39
2022-09-15T21:48:27.218Z,11.34
2022-09-15T21:50:54.239Z,11.32
2022-09-15T21:53:21.043Z,11.13
2022-09-15T21:55:50.351Z,11.29
2022-09-15T21:58:21.971Z,11.18
2022-09-15T22:00:49.666Z,11.25
2022-09-15T22:03:17.444Z,11.24
2022-09-15T22:05:47.905Z,11.19
2022-09-15T22:08:16.052Z,11.08
2022-09-15T22:10:43.399Z,11.21
2022-09-15T22:13:12.367Z,10.98
2022-09-15T22:15:38.785Z,11.08
2022-09-15T22:18:05.619Z,11.14
2022-09-15T22:20:32.088Z,11.13
2022-09-15T22:23:01.351Z,11.03
2022-09-15T22:25:27.789Z,11.09
2022-09-15T22:27:54.328Z,11.02
2022-09-15T22:30:20.667Z,11.04
2022-09-15T22:32:47.199Z,11.06
2022-09-15T22:35:13.532Z,11.12
2022-09-15T22:37:40.092Z,11.25
2022-09-15T22:40:06.774Z,10.91
2022-09-15T22:42:33.155Z,10.93
2022-09-15T22:44:59.487Z,10.92
2022-09-15T22:47:26.001Z,10.85
2022-09-15T22:49:52.362Z,10.76
2022-09-15T22:52:21.137Z,10.84
2022-09-15T22:54:47.477Z,10.97
2022-09-15T22:57:14.026Z,10.85
2022-09-15T22:59:40.386Z,10.91
2022-09-15T23:02:06.810Z,11.04
2022-09-15T23:04:33.151Z,11.04
2022-09-15T23:06:59.665Z,10.73
2022-09-15T23:09:26.355Z,10.79
2022-09-15T23:11:52.801Z,10.56
2022-09-15T23:14:19.110Z,10.72
2022-09-15T23:16:45.674Z,10.84
2022-09-15T23:19:13.447Z,10.84
2022-09-15T23:21:40.139Z,10.83
2022-09-15T23:24:06.751Z,10.83
2022-09-15T23:26:33.597Z,10.89
2022-09-15T23:28:59.924Z,10.88
2022-09-15T23:31:26.388Z,10.77
2022-09-15T23:33:52.759Z,10.68
2022-09-15T23:36:19.802Z,10.78
2022-09-15T23:38:47.600Z,10.67
2022-09-15T23:41:14.891Z,10.70
2022-09-15T23:43:41.222Z,10.77
2022-09-15T23:46:08.227Z,10.74
2022-09-15T23:48:34.723Z,10.71
2022-09-15T23:51:01.574Z,10.80
2022-09-15T23:53:28.627Z,10.61
2022-09-15T23:55:55.363Z,10.54
2022-09-15T23:58:21.723Z,10.58
